Scammon Bay Airport
PACM : rendu visible

Aérodrome :











RETROUVEZ-NOUS SUR...

 
LOGIN :

S'inscrire | Disclaimer

   EN    FR    IT 

 









Légende :    VFR   VFR Marginal   IFR   IFR Intensif   IFR Très Intensif
Visi : 
Plafond : 
>= 8 km
>= 3000ft
5 à 8 km
1000 à 3000 ft
1500m à 5 km
500 à 1000 ft
800 à 1500m
200 à 500 ft
< 800m
< 200 ft
Symboles :   Orages  Brouillard  Fortes neiges  Fortes précipitations  Vent > 20 kt






- Altitude de l'aérodrome : 14 ft


PACM - Scammon Bay

DERNIER METAR :
  • 271056Z AUTO 12003KT 10SM CLR M21/M22 A2990 RMK AO2 SLP120 T12061222 FZRANO

METARs EXPIRÉS :
  • 270956Z AUTO 00000KT 10SM CLR M20/M22 A2989 RMK AO2 SLP118 T12001217 FZRANO
  • 270856Z AUTO 00000KT 5SM BR CLR M20/M22 A2989 RMK AO2 SLP119 T12001222 410891200 51006 FZRANO

TAF N/A



MET'MAP, la Météo Aéronautique d'un coup d'oeil ! - Copyright ORBIFLY Décembre 2007 - Disclaimer

ORBIFLY MET'MAP TEAM :

Programmation & Développement : Alexandra Zaïnal
Sur une idée originale de : Baudouin d'Aumeries
Assistance à la programmation : Marc-Olivier Méhu
Soutien technique & logistique : Manuel Goepfert

Contact : metmap@orbifly.com




SOURCES & CREDITS :

   NOAA       Earth
Advisory